Time;durP1;ratioP1;P1;durP2;ratioP2;P2;SDS_P1;SDS_P2;PMS_P1;PMS_P2;Temp;Humidity;BMP_temperature;BMP_pressure;BME280_temperature;BME280_humidity;BME280_pressure;Samples;Min_cycle;Max_cycle;Signal;HPM_P1;HPM_P2
2023/02/01 00:00:28;;;;;;;;;;;;;;;4.63;60.14;98805.69;4957122;29;19918;-76
2023/02/01 00:02:53;;;;;;;;;;;;;;;4.62;60.08;98806.63;4957191;29;19973;-77
2023/02/01 00:05:19;;;;;;;;;;;;;;;4.64;60.01;98808.22;4957633;29;20375;-78
2023/02/01 00:07:44;;;;;;;;;;;;;;;4.62;60.05;98809.22;4956846;29;19918;-77
2023/02/01 00:10:11;;;;;;;;;;;;;;;4.64;59.96;98815.13;4939998;29;19934;-79
2023/02/01 00:12:36;;;;;;;;;;;;;;;4.63;60.38;98816.91;4956951;29;19969;-76
2023/02/01 00:15:02;;;;;;;;;;;;;;;4.63;60.27;98823.78;4939728;29;20013;-77
2023/02/01 00:17:27;;;;;;;;;;;;;;;4.64;60.20;98823.72;4939619;29;19925;-76
2023/02/01 00:19:52;;;;;;;;;;;;;;;4.64;59.99;98817.72;4939613;29;19925;-76
2023/02/01 00:22:17;;;;;;;;;;;;;;;4.65;60.15;98809.03;4955626;28;19918;-76
2023/02/01 00:24:43;;;;;;;;;;;;;;;4.66;59.74;98815.88;4956793;29;20396;-76
2023/02/01 00:27:08;;;;;;;;;;;;;;;4.66;60.00;98808.97;4955519;29;19925;-76
2023/02/01 00:29:33;;;;;;;;;;;;;;;4.68;59.94;98808.88;4939495;29;20351;-76
2023/02/01 00:31:59;;;;;;;;;;;;;;;4.69;60.11;98813.97;4956799;29;19929;-77
2023/02/01 00:34:24;;;;;;;;;;;;;;;4.74;60.27;98818.09;4956709;29;20374;-76
2023/02/01 00:36:49;;;;;;;;;;;;;;;4.72;60.13;98813.81;4939362;29;19922;-77
2023/02/01 00:39:15;;;;;;;;;;;;;;;4.75;59.64;98815.41;4955155;29;20013;-77
2023/02/01 00:41:40;;;;;;;;;;;;;;;4.77;59.95;98820.53;4955291;29;20405;-77
2023/02/01 00:44:05;;;;;;;;;;;;;;;4.79;59.71;98821.25;4955238;29;19929;-76
2023/02/01 00:46:31;;;;;;;;;;;;;;;4.78;59.88;98820.44;4954494;29;19926;-77
2023/02/01 00:48:56;;;;;;;;;;;;;;;4.79;59.80;98824.72;4956706;29;19926;-77
2023/02/01 00:51:22;;;;;;;;;;;;;;;4.81;59.66;98814.28;4956383;29;19919;-77
2023/02/01 00:53:47;;;;;;;;;;;;;;;4.82;59.80;98823.69;4954951;29;20000;-77
2023/02/01 00:56:13;;;;;;;;;;;;;;;4.82;59.37;98821.97;4956564;29;19975;-78
2023/02/01 00:58:38;;;;;;;;;;;;;;;4.83;59.42;98818.44;4954884;29;19977;-77
2023/02/01 01:01:09;;;;;;;;;;;;;;;4.82;59.64;98819.38;4955769;29;20033;-78
2023/02/01 01:03:35;;;;;;;;;;;;;;;4.83;59.73;98821.03;4955033;28;20077;-77
2023/02/01 01:06:01;;;;;;;;;;;;;;;4.82;59.61;98815.94;4954821;29;19918;-77
2023/02/01 01:08:26;;;;;;;;;;;;;;;4.81;59.59;98824.63;4954633;29;20309;-78
2023/02/01 01:10:52;;;;;;;;;;;;;;;4.81;59.48;98815.13;4954958;29;19919;-76
2023/02/01 01:13:17;;;;;;;;;;;;;;;4.80;59.61;98817.78;4955828;29;20006;-77
2023/02/01 01:15:42;;;;;;;;;;;;;;;4.80;59.11;98817.78;4956176;29;19919;-77
2023/02/01 01:18:08;;;;;;;;;;;;;;;4.78;59.25;98810.09;4955732;29;19923;-77
2023/02/01 01:20:33;;;;;;;;;;;;;;;4.78;59.42;98810.09;4954438;29;19941;-77
2023/02/01 01:22:59;;;;;;;;;;;;;;;4.78;59.37;98801.50;4954433;29;20009;-77
2023/02/01 01:25:24;;;;;;;;;;;;;;;4.77;59.38;98810.16;4954361;29;19918;-77
2023/02/01 01:27:49;;;;;;;;;;;;;;;4.75;59.45;98804.25;4954010;29;19923;-78
2023/02/01 01:30:15;;;;;;;;;;;;;;;4.70;59.31;98807.91;4954862;28;19923;-78
2023/02/01 01:32:40;;;;;;;;;;;;;;;4.69;59.42;98801.03;4954552;28;19923;-77
2023/02/01 01:35:06;;;;;;;;;;;;;;;4.66;59.43;98808.13;4955696;29;20390;-78
2023/02/01 01:37:31;;;;;;;;;;;;;;;4.63;59.20;98803.13;4955561;29;19969;-77
2023/02/01 01:39:57;;;;;;;;;;;;;;;4.60;59.49;98811.03;4954298;29;20001;-78
2023/02/01 01:42:22;;;;;;;;;;;;;;;4.57;59.42;98804.28;4954034;29;20342;-79
2023/02/01 01:45:26;;;;;;;;;;;;;;;4.55;59.55;98808.66;4955306;29;20279;-78
2023/02/01 01:47:52;;;;;;;;;;;;;;;4.53;59.23;98811.34;4934390;29;20378;-78
2023/02/01 01:50:19;;;;;;;;;;;;;;;4.53;59.26;98810.50;4918039;29;20387;-79
2023/02/01 01:52:45;;;;;;;;;;;;;;;4.49;59.58;98812.41;4918050;29;20362;-78
2023/02/01 01:55:11;;;;;;;;;;;;;;;4.49;59.67;98803.81;4918549;29;20310;-78
2023/02/01 01:57:37;;;;;;;;;;;;;;;4.47;59.39;98816.81;4918536;29;19919;-78
2023/02/01 02:00:06;;;;;;;;;;;;;;;4.46;59.80;98815.16;4918240;29;19918;-78
2023/02/01 02:02:32;;;;;;;;;;;;;;;4.46;59.59;98814.28;4918411;29;19919;-78
2023/02/01 02:04:57;;;;;;;;;;;;;;;4.41;59.38;98809.38;4918356;29;19919;-78
2023/02/01 02:07:28;;;;;;;;;;;;;;;4.43;59.38;98814.44;4918213;29;19919;-78
2023/02/01 02:09:53;;;;;;;;;;;;;;;4.41;59.48;98811.97;4917862;29;19959;-78
2023/02/01 02:12:18;;;;;;;;;;;;;;;4.40;59.75;98810.28;4917978;29;19941;-78
2023/02/01 02:14:43;;;;;;;;;;;;;;;4.37;59.65;98805.25;4917990;29;19925;-78
2023/02/01 02:17:14;;;;;;;;;;;;;;;4.35;59.79;98802.75;4933155;29;19919;-78
2023/02/01 02:19:40;;;;;;;;;;;;;;;4.32;59.54;98802.91;4952556;29;19918;-78
2023/02/01 02:22:23;;;;;;;;;;;;;;;4.31;59.33;98805.56;4954899;29;19922;-77
2023/02/01 02:24:58;;;;;;;;;;;;;;;4.29;59.56;98803.06;4955219;29;19919;-78
2023/02/01 02:27:26;;;;;;;;;;;;;;;4.30;59.71;98807.31;4953789;29;20013;-79
2023/02/01 02:30:10;;;;;;;;;;;;;;;4.30;59.71;98802.16;4953684;29;19926;-78
2023/02/01 02:32:38;;;;;;;;;;;;;;;4.30;59.50;98804.75;4953200;29;19926;-77
2023/02/01 02:35:19;;;;;;;;;;;;;;;4.27;59.78;98804.03;4953589;29;20012;-78
2023/02/01 02:37:55;;;;;;;;;;;;;;;4.28;59.66;98805.72;4954558;29;20436;-78
2023/02/01 02:40:35;;;;;;;;;;;;;;;4.27;59.62;98809.19;4953647;29;20289;-78
2023/02/01 02:48:43;;;;;;;;;;;;;;;4.26;59.47;98807.56;4953924;29;19957;-78
2023/02/01 03:05:09;;;;;;;;;;;;;;;4.23;59.24;98813.69;4954861;29;20384;-77
2023/02/01 03:07:52;;;;;;;;;;;;;;;4.21;59.23;98812.13;4954563;29;20013;-78
2023/02/01 03:10:20;;;;;;;;;;;;;;;4.19;59.13;98816.50;4954628;29;20298;-79
2023/02/01 03:12:55;;;;;;;;;;;;;;;4.18;58.93;98817.44;4955022;29;19929;-78
2023/02/01 03:15:22;;;;;;;;;;;;;;;4.18;59.25;98820.84;4953568;29;19964;-78
2023/02/01 03:17:47;;;;;;;;;;;;;;;4.18;59.02;98813.09;4953279;29;19925;-78
2023/02/01 03:20:13;;;;;;;;;;;;;;;4.16;59.43;98817.50;4953218;29;19919;-78
2023/02/01 03:22:38;;;;;;;;;;;;;;;4.16;59.05;98810.59;4953040;29;19919;-78
2023/02/01 03:25:24;;;;;;;;;;;;;;;4.16;59.16;98812.34;4953291;29;20294;-78
2023/02/01 03:27:53;;;;;;;;;;;;;;;4.16;58.92;98812.34;4935258;29;19958;-77
2023/02/01 03:30:25;;;;;;;;;;;;;;;4.16;58.94;98808.00;4921055;29;20460;-78
2023/02/01 03:33:00;;;;;;;;;;;;;;;4.16;59.08;98809.75;4920485;29;19923;-78
2023/02/01 03:35:30;;;;;;;;;;;;;;;4.15;59.31;98811.47;4922013;29;20610;-78
2023/02/01 03:37:56;;;;;;;;;;;;;;;4.16;59.08;98808.00;4920672;29;19943;-78
2023/02/01 03:40:22;;;;;;;;;;;;;;;4.15;58.95;98811.47;4920782;29;20375;-78
2023/02/01 03:42:49;;;;;;;;;;;;;;;4.14;59.17;98815.00;4936596;29;19919;-78
2023/02/01 03:45:22;;;;;;;;;;;;;;;4.14;58.97;98815.00;4920939;29;19942;-78
2023/02/01 03:47:48;;;;;;;;;;;;;;;4.14;59.13;98815.00;4920742;29;19925;-77
2023/02/01 03:50:14;;;;;;;;;;;;;;;4.12;59.21;98814.22;4936951;29;19924;-77
2023/02/01 03:52:41;;;;;;;;;;;;;;;4.13;59.11;98817.66;4936293;29;20019;-77
2023/02/01 03:55:07;;;;;;;;;;;;;;;4.11;59.08;98822.91;4920604;29;20014;-77
2023/02/01 03:57:35;;;;;;;;;;;;;;;4.11;58.61;98822.91;4920241;29;20017;-77
2023/02/01 04:00:20;;;;;;;;;;;;;;;4.11;58.81;98819.44;4920228;29;20028;-77
2023/02/01 04:02:46;;;;;;;;;;;;;;;4.10;59.10;98821.22;4920703;29;20033;-76
2023/02/01 04:05:12;;;;;;;;;;;;;;;4.10;58.81;98826.38;4933478;29;19978;-76
2023/02/01 04:07:37;;;;;;;;;;;;;;;4.09;58.85;98822.09;4957620;29;19919;-77
2023/02/01 04:10:03;;;;;;;;;;;;;;;4.07;58.99;98821.34;4956112;29;19918;-77
2023/02/01 04:12:28;;;;;;;;;;;;;;;4.08;58.70;98819.59;4956152;29;20391;-77
2023/02/01 04:14:53;;;;;;;;;;;;;;;4.06;58.96;98811.91;4958162;29;19941;-77
2023/02/01 04:17:19;;;;;;;;;;;;;;;4.05;58.89;98807.69;4955890;29;20389;-77
2023/02/01 04:19:44;;;;;;;;;;;;;;;4.06;58.73;98818.84;4956085;29;19922;-77
2023/02/01 04:22:09;;;;;;;;;;;;;;;4.05;58.83;98812.00;4956068;28;19922;-76
2023/02/01 04:24:36;;;;;;;;;;;;;;;4.02;58.60;98823.34;4955384;29;19961;-76
2023/02/01 04:27:02;;;;;;;;;;;;;;;4.02;58.95;98823.34;4965608;28;19974;-77
2023/02/01 04:29:27;;;;;;;;;;;;;;;4.01;58.81;98836.31;4952813;29;20002;-77
2023/02/01 04:31:53;;;;;;;;;;;;;;;3.99;58.73;98831.22;4938340;29;19922;-77
2023/02/01 04:34:18;;;;;;;;;;;;;;;3.96;58.68;98837.38;4939254;29;19930;-78
2023/02/01 04:36:43;;;;;;;;;;;;;;;3.96;58.50;98850.28;4956231;29;19918;-77
2023/02/01 04:39:09;;;;;;;;;;;;;;;3.92;58.74;98847.91;4936833;29;19923;-77
2023/02/01 04:41:34;;;;;;;;;;;;;;;3.91;59.12;98847.09;4938101;29;19919;-75
2023/02/01 04:44:00;;;;;;;;;;;;;;;3.90;58.58;98847.16;4939490;29;19926;-87
2023/02/01 04:46:25;;;;;;;;;;;;;;;3.88;58.54;98844.66;4937906;29;19926;-86
2023/02/01 04:48:50;;;;;;;;;;;;;;;3.87;58.19;98847.31;4938002;29;19918;-86
2023/02/01 04:51:17;;;;;;;;;;;;;;;3.85;58.42;98838.78;4938102;29;19981;-84
2023/02/01 04:53:43;;;;;;;;;;;;;;;3.84;58.11;98837.13;4955844;29;20457;-88
2023/02/01 04:56:08;;;;;;;;;;;;;;;3.82;57.92;98838.94;4922420;29;19919;-83
2023/02/01 04:58:34;;;;;;;;;;;;;;;3.81;57.93;98835.50;4939253;29;19922;-84
2023/02/01 05:00:59;;;;;;;;;;;;;;;3.80;58.06;98839.00;4938370;29;20409;-77
2023/02/01 05:03:24;;;;;;;;;;;;;;;3.79;58.01;98843.31;4938769;29;19918;-81
2023/02/01 05:05:50;;;;;;;;;;;;;;;3.78;58.05;98846.00;4923727;29;20017;-78
2023/02/01 05:08:15;;;;;;;;;;;;;;;3.88;65.57;98849.81;4959603;29;19922;-76
2023/02/01 05:10:40;;;;;;;;;;;;;;;3.93;64.13;98852.19;4962868;29;19977;-79
2023/02/01 05:16:09;;;;;;;;;;;;;;;4.73;76.56;98853.47;4888565;29;19924;-88
2023/02/01 05:18:35;;;;;;;;;;;;;;;4.72;71.95;98846.59;4897148;29;19919;-82
2023/02/01 05:21:01;;;;;;;;;;;;;;;4.66;67.90;98846.91;4897156;29;20006;-72
2023/02/01 05:23:26;;;;;;;;;;;;;;;4.59;66.19;98846.41;4896865;29;19920;-73
2023/02/01 05:25:52;;;;;;;;;;;;;;;4.55;64.97;98857.78;4896794;29;20280;-73
2023/02/01 05:28:17;;;;;;;;;;;;;;;4.50;64.59;98862.34;4895341;29;19920;-74
2023/02/01 05:30:42;;;;;;;;;;;;;;;4.48;64.54;98874.53;4896777;29;19919;-75
2023/02/01 05:33:08;;;;;;;;;;;;;;;4.48;63.93;98871.94;4896171;29;20081;-75
2023/02/01 05:35:33;;;;;;;;;;;;;;;4.48;63.77;98870.19;4898658;29;19982;-74
2023/02/01 05:37:58;;;;;;;;;;;;;;;4.52;63.22;98869.13;4889066;29;19954;-74
2023/02/01 05:40:24;;;;;;;;;;;;;;;4.55;62.67;98864.72;4896713;29;20133;-73
2023/02/01 05:42:49;;;;;;;;;;;;;;;4.57;62.95;98861.16;4896406;29;19952;-73
2023/02/01 05:45:14;;;;;;;;;;;;;;;4.63;62.30;98855.69;4881058;29;20399;-72
2023/02/01 05:47:39;;;;;;;;;;;;;;;4.70;62.31;98859.63;4943855;29;19925;-73
2023/02/01 05:50:05;;;;;;;;;;;;;;;4.83;61.70;98866.75;4955358;28;19927;-72
2023/02/01 05:52:30;;;;;;;;;;;;;;;5.03;61.18;98868.34;4955619;29;19919;-73
2023/02/01 05:54:56;;;;;;;;;;;;;;;5.23;60.61;98873.31;4953864;29;19972;-72
2023/02/01 05:57:21;;;;;;;;;;;;;;;5.44;59.96;98875.69;4938206;29;19919;-73
2023/02/01 05:59:48;;;;;;;;;;;;;;;5.66;59.32;98870.22;4955243;29;19997;-73
2023/02/01 06:02:13;;;;;;;;;;;;;;;5.90;58.88;98877.53;4955486;29;19926;-80
2023/02/01 06:04:39;;;;;;;;;;;;;;;6.15;58.43;98877.06;4938277;29;19919;-76
2023/02/01 06:07:05;;;;;;;;;;;;;;;6.29;58.00;98874.53;4955419;29;19919;-75
2023/02/01 06:09:30;;;;;;;;;;;;;;;6.35;57.50;98878.53;4937112;29;20016;-79
2023/02/01 06:11:56;;;;;;;;;;;;;;;6.41;56.79;98878.19;4953924;29;20013;-75
2023/02/01 06:14:21;;;;;;;;;;;;;;;6.50;55.97;98880.25;4955304;29;20354;-76
2023/02/01 06:16:46;;;;;;;;;;;;;;;6.57;54.74;98878.13;4955355;29;19925;-77
2023/02/01 06:19:12;;;;;;;;;;;;;;;6.57;54.72;98883.34;4955364;29;20406;-76
2023/02/01 06:21:37;;;;;;;;;;;;;;;6.57;54.69;98885.91;4955106;29;19919;-75
2023/02/01 06:24:03;;;;;;;;;;;;;;;6.57;54.24;98893.69;4938605;29;19918;-75
2023/02/01 06:26:28;;;;;;;;;;;;;;;6.61;54.08;98883.97;4937974;29;20287;-75
2023/02/01 06:28:55;;;;;;;;;;;;;;;6.69;52.60;98889.59;4938164;29;19919;-76
2023/02/01 06:31:20;;;;;;;;;;;;;;;6.79;52.88;98895.06;4938016;29;19918;-77
2023/02/01 06:33:46;;;;;;;;;;;;;;;6.92;51.74;98895.19;4953234;29;19931;-75
2023/02/01 06:36:12;;;;;;;;;;;;;;;7.03;51.24;98895.38;4953232;29;19919;-75
2023/02/01 06:38:38;;;;;;;;;;;;;;;8.26;48.75;98887.81;4937954;29;19926;-77
2023/02/01 06:41:04;;;;;;;;;;;;;;;9.35;46.90;98892.78;4938031;29;19919;-74
2023/02/01 06:43:29;;;;;;;;;;;;;;;10.59;43.91;98895.31;4937772;29;19977;-76
2023/02/01 06:45:59;;;;;;;;;;;;;;;11.86;41.73;98897.03;4937624;29;20017;-75
2023/02/01 06:48:24;;;;;;;;;;;;;;;13.22;38.71;98901.72;4953029;29;20318;-75
2023/02/01 06:50:49;;;;;;;;;;;;;;;14.59;36.31;98907.34;4954683;29;19919;-76
2023/02/01 06:53:15;;;;;;;;;;;;;;;15.99;33.16;98910.19;4955096;29;19918;-75
2023/02/01 06:55:40;;;;;;;;;;;;;;;17.28;30.82;98906.38;4954734;29;19925;-77
2023/02/01 06:58:05;;;;;;;;;;;;;;;18.45;28.29;98912.75;4937327;29;20431;-77
2023/02/01 07:00:30;;;;;;;;;;;;;;;19.45;26.75;98911.72;4937393;29;19918;-77
2023/02/01 07:02:57;;;;;;;;;;;;;;;20.20;25.19;98908.59;4956445;28;19929;-77
2023/02/01 07:05:22;;;;;;;;;;;;;;;20.76;24.26;98910.22;4941632;29;19925;-76
2023/02/01 07:07:47;;;;;;;;;;;;;;;21.07;23.64;98906.66;4941665;29;19997;-75
2023/02/01 07:10:13;;;;;;;;;;;;;;;21.20;23.29;98911.34;4958515;29;19919;-76
2023/02/01 07:12:38;;;;;;;;;;;;;;;21.06;23.47;98910.31;4941068;29;19923;-75
2023/02/01 07:15:04;;;;;;;;;;;;;;;20.73;23.92;98924.69;4941358;29;19918;-75
2023/02/01 07:17:29;;;;;;;;;;;;;;;20.51;24.04;98931.63;4956724;29;19923;-75
2023/02/01 07:19:55;;;;;;;;;;;;;;;20.43;24.54;98929.03;4958499;29;19968;-75
2023/02/01 07:22:20;;;;;;;;;;;;;;;20.53;24.49;98936.75;4940988;29;20018;-77
2023/02/01 07:24:45;;;;;;;;;;;;;;;20.65;24.24;98934.53;4958518;29;19929;-77
2023/02/01 07:27:11;;;;;;;;;;;;;;;20.56;24.24;98933.75;4956861;29;20374;-79
2023/02/01 07:29:36;;;;;;;;;;;;;;;20.56;24.35;98931.91;4940698;29;19973;-78
2023/02/01 07:32:02;;;;;;;;;;;;;;;20.56;24.28;98933.75;4956199;29;19919;-77
2023/02/01 07:34:27;;;;;;;;;;;;;;;20.59;24.00;98931.56;4941528;29;19922;-77
2023/02/01 07:36:53;;;;;;;;;;;;;;;20.69;24.16;98935.84;4940956;29;19972;-77
2023/02/01 07:39:18;;;;;;;;;;;;;;;20.72;24.18;98938.13;4956935;28;19919;-77
2023/02/01 07:41:43;;;;;;;;;;;;;;;20.85;23.78;98942.84;4956765;28;19921;-77
2023/02/01 07:44:09;;;;;;;;;;;;;;;20.89;23.53;98938.81;4956626;28;19920;-78
2023/02/01 07:46:34;;;;;;;;;;;;;;;20.52;23.73;98945.69;4957858;29;19918;-79
2023/02/01 07:49:00;;;;;;;;;;;;;;;20.61;23.52;98944.66;4957811;29;19918;-78
2023/02/01 07:51:25;;;;;;;;;;;;;;;19.94;24.34;98953.97;4957808;29;19926;-77
2023/02/01 07:53:50;;;;;;;;;;;;;;;19.59;24.26;98955.19;4940528;29;19919;-77
2023/02/01 07:56:17;;;;;;;;;;;;;;;18.98;25.15;98945.88;4957695;29;19922;-77
2023/02/01 07:58:42;;;;;;;;;;;;;;;18.39;25.57;98953.91;4940546;29;19954;-77
2023/02/01 08:01:20;;;;;;;;;;;;;;;17.78;26.41;98955.78;4940238;29;19969;-76
2023/02/01 08:03:49;;;;;;;;;;;;;;;17.25;27.21;98962.94;4941200;29;19969;-76
2023/02/01 08:06:14;;;;;;;;;;;;;;;16.74;28.10;98957.38;4957901;29;19920;-77
2023/02/01 08:08:40;;;;;;;;;;;;;;;16.27;28.53;98960.19;4940577;29;19977;-77
2023/02/01 08:11:05;;;;;;;;;;;;;;;15.82;29.27;98968.88;4956747;28;20495;-78
2023/02/01 08:13:30;;;;;;;;;;;;;;;15.37;30.22;98960.69;4955488;28;19925;-76
2023/02/01 08:15:59;;;;;;;;;;;;;;;14.98;30.82;98960.75;4923714;29;19923;-77
2023/02/01 08:18:25;;;;;;;;;;;;;;;14.60;31.34;98953.72;4940130;29;19925;-77
2023/02/01 08:20:50;;;;;;;;;;;;;;;14.24;31.82;98966.47;4939967;29;20306;-77
2023/02/01 08:23:16;;;;;;;;;;;;;;;13.92;32.53;98964.88;4940165;29;19977;-77
2023/02/01 08:25:42;;;;;;;;;;;;;;;13.61;33.22;98954.38;4957328;29;19918;-78
2023/02/01 08:28:07;;;;;;;;;;;;;;;13.37;33.72;98959.91;4940038;29;20444;-78
2023/02/01 08:30:32;;;;;;;;;;;;;;;13.11;34.18;98962.91;4939902;29;19918;-78
2023/02/01 08:32:58;;;;;;;;;;;;;;;12.89;34.52;98970.84;4939540;29;19923;-78
2023/02/01 08:35:23;;;;;;;;;;;;;;;12.66;35.09;98969.16;4957565;29;19922;-76
2023/02/01 08:37:49;;;;;;;;;;;;;;;12.47;35.30;98964.59;4956952;29;19964;-76
2023/02/01 08:40:15;;;;;;;;;;;;;;;12.30;35.60;98967.72;4939825;29;19919;-76
2023/02/01 08:42:53;;;;;;;;;;;;;;;12.14;36.12;98975.97;4939809;29;19919;-75
2023/02/01 08:45:19;;;;;;;;;;;;;;;11.97;36.62;98976.47;4940981;29;20373;-77
2023/02/01 08:47:46;;;;;;;;;;;;;;;11.82;36.67;98975.84;4939793;29;19923;-76
2023/02/01 08:50:12;;;;;;;;;;;;;;;11.70;36.87;98975.84;4939979;29;19976;-76
2023/02/01 08:52:37;;;;;;;;;;;;;;;11.59;37.03;98981.91;4939579;29;20385;-76
2023/02/01 08:55:02;;;;;;;;;;;;;;;11.45;37.03;98976.91;4939463;29;19919;-76
2023/02/01 08:57:28;;;;;;;;;;;;;;;11.35;37.35;98973.31;4939477;29;19918;-76
2023/02/01 08:59:53;;;;;;;;;;;;;;;11.23;37.55;98972.47;4939538;29;19918;-77
2023/02/01 09:02:18;;;;;;;;;;;;;;;11.12;37.79;98968.03;4955482;28;19941;-78
2023/02/01 09:04:43;;;;;;;;;;;;;;;11.01;37.98;98981.88;4939544;29;19919;-79
2023/02/01 09:07:09;;;;;;;;;;;;;;;10.95;38.25;98977.13;4955628;28;20330;-77
2023/02/01 09:09:34;;;;;;;;;;;;;;;10.88;38.45;98975.06;4939371;29;19919;-77
2023/02/01 09:12:00;;;;;;;;;;;;;;;10.82;38.63;98969.34;4956591;29;19925;-78
2023/02/01 09:14:25;;;;;;;;;;;;;;;10.81;38.34;98964.25;4956587;29;19926;-75
2023/02/01 09:16:50;;;;;;;;;;;;;;;10.79;38.36;98958.31;4939675;29;19922;-76
2023/02/01 09:19:16;;;;;;;;;;;;;;;10.72;38.48;98955.34;4938932;29;19923;-77
2023/02/01 09:21:41;;;;;;;;;;;;;;;10.69;38.73;98952.94;4938788;29;20394;-76
2023/02/01 09:24:06;;;;;;;;;;;;;;;10.62;39.11;98962.97;4939304;29;19918;-77
2023/02/01 09:26:32;;;;;;;;;;;;;;;10.55;39.09;98960.91;4955539;28;19977;-76
2023/02/01 09:28:58;;;;;;;;;;;;;;;10.53;39.17;98960.22;4938909;29;19919;-77
2023/02/01 09:31:23;;;;;;;;;;;;;;;10.48;39.27;98955.31;4938739;29;19929;-76
2023/02/01 09:33:48;;;;;;;;;;;;;;;10.42;39.57;98959.22;4956199;29;19985;-78
2023/02/01 09:36:14;;;;;;;;;;;;;;;10.42;39.44;98945.31;4938712;29;19941;-77
2023/02/01 09:38:39;;;;;;;;;;;;;;;10.44;39.51;98943.44;4955930;29;19918;-77
2023/02/01 09:41:30;;;;;;;;;;;;;;;10.46;39.63;98942.38;4955695;29;20374;-75
2023/02/01 09:43:59;;;;;;;;;;;;;;;10.49;39.39;98942.16;4953772;29;19932;-77
2023/02/01 09:46:28;;;;;;;;;;;;;;;10.56;39.54;98944.31;4939190;29;19988;-76
2023/02/01 09:48:54;;;;;;;;;;;;;;;10.70;39.18;98940.72;4955969;29;19965;-76
2023/02/01 09:51:21;;;;;;;;;;;;;;;10.80;39.19;98936.47;4938747;29;19919;-76
2023/02/01 09:53:48;;;;;;;;;;;;;;;10.82;39.04;98940.63;4938287;29;19973;-77
2023/02/01 09:56:14;;;;;;;;;;;;;;;10.83;39.21;98934.47;4954414;28;19918;-77
2023/02/01 09:58:44;;;;;;;;;;;;;;;10.87;39.02;98932.47;4939100;29;19990;-76
2023/02/01 10:01:15;;;;;;;;;;;;;;;10.93;38.90;98929.41;4938454;29;19918;-78
2023/02/01 10:03:40;;;;;;;;;;;;;;;10.96;39.13;98928.31;4938199;29;19922;-77
2023/02/01 10:06:08;;;;;;;;;;;;;;;10.96;39.29;98928.31;4955654;29;19923;-78
2023/02/01 10:08:46;;;;;;;;;;;;;;;10.96;39.40;98910.88;4955515;29;20382;-77
2023/02/01 10:11:17;;;;;;;;;;;;;;;10.97;39.27;98922.97;4955716;29;19919;-77
2023/02/01 10:13:51;;;;;;;;;;;;;;;10.95;39.71;98914.44;4955424;29;20290;-76
2023/02/01 10:16:20;;;;;;;;;;;;;;;10.94;39.75;98914.53;4938332;29;20398;-78
2023/02/01 10:18:45;;;;;;;;;;;;;;;10.91;39.61;98912.16;4938734;29;19925;-77
2023/02/01 10:21:17;;;;;;;;;;;;;;;10.88;40.02;98909.78;4938039;29;19918;-77
2023/02/01 10:23:42;;;;;;;;;;;;;;;10.81;40.03;98898.97;4955016;29;19918;-77
2023/02/01 10:26:13;;;;;;;;;;;;;;;10.76;40.14;98901.91;4955322;29;20029;-76
2023/02/01 10:28:39;;;;;;;;;;;;;;;10.73;40.20;98894.31;4938082;29;20364;-78
2023/02/01 10:31:04;;;;;;;;;;;;;;;10.71;40.38;98885.78;4937963;29;19969;-76
2023/02/01 10:33:51;;;;;;;;;;;;;;;10.70;40.69;98888.50;4937935;29;20010;-77
2023/02/01 10:36:36;;;;;;;;;;;;;;;10.70;40.69;98891.09;4937537;28;19922;-76
2023/02/01 10:39:02;;;;;;;;;;;;;;;10.72;40.62;98878.75;4938035;29;19940;-78
2023/02/01 10:41:34;;;;;;;;;;;;;;;10.83;40.26;98884.00;4937889;29;19925;-77
2023/02/01 10:43:59;;;;;;;;;;;;;;;10.93;40.30;98879.78;4938297;29;19919;-77
2023/02/01 10:46:25;;;;;;;;;;;;;;;11.07;39.80;98873.50;4954816;29;19982;-78
2023/02/01 10:48:50;;;;;;;;;;;;;;;11.04;39.01;98869.34;4937898;29;19918;-78
2023/02/01 10:51:18;;;;;;;;;;;;;;;11.19;39.09;98869.94;4937820;29;19993;-77
2023/02/01 10:53:46;;;;;;;;;;;;;;;11.13;39.02;98869.56;4937611;29;20285;-76
2023/02/01 10:56:12;;;;;;;;;;;;;;;11.08;38.72;98869.09;4937789;29;20374;-77
2023/02/01 10:58:44;;;;;;;;;;;;;;;11.07;39.02;98867.44;4937887;29;19942;-79
2023/02/01 11:01:15;;;;;;;;;;;;;;;11.03;38.95;98859.00;4937649;29;20309;-77
2023/02/01 11:03:46;;;;;;;;;;;;;;;11.07;39.07;98846.53;4937594;29;19919;-76
2023/02/01 11:06:12;;;;;;;;;;;;;;;11.40;38.47;98843.94;4954891;29;20409;-77
2023/02/01 11:08:45;;;;;;;;;;;;;;;11.90;37.75;98837.44;4954471;29;19962;-80
2023/02/01 11:11:11;;;;;;;;;;;;;;;12.53;37.21;98836.75;4937580;29;19926;-77
2023/02/01 11:13:37;;;;;;;;;;;;;;;13.04;36.81;98828.09;4954854;29;20405;-76
2023/02/01 11:16:03;;;;;;;;;;;;;;;13.61;36.48;98827.66;4937234;29;19918;-77
2023/02/01 11:18:30;;;;;;;;;;;;;;;14.07;35.63;98819.19;4937807;29;19919;-76
2023/02/01 11:20:55;;;;;;;;;;;;;;;14.57;35.18;98804.22;4937376;29;19950;-77
2023/02/01 11:23:24;;;;;;;;;;;;;;;14.85;33.23;98789.38;4937660;29;19958;-77
2023/02/01 11:25:50;;;;;;;;;;;;;;;15.04;33.01;98798.16;4921520;29;20386;-76
2023/02/01 11:28:16;;;;;;;;;;;;;;;15.23;32.52;98789.38;4937397;29;19929;-78
2023/02/01 11:30:42;;;;;;;;;;;;;;;15.43;33.15;98788.28;4937737;29;19918;-78
2023/02/01 11:33:09;;;;;;;;;;;;;;;15.56;32.79;98787.97;4937374;29;19927;-79
2023/02/01 11:35:37;;;;;;;;;;;;;;;15.68;33.00;98786.75;4937370;29;20317;-77
2023/02/01 11:38:09;;;;;;;;;;;;;;;15.67;32.80;98785.13;4954905;29;20009;-77
2023/02/01 11:40:35;;;;;;;;;;;;;;;15.81;32.81;98770.63;4937327;29;19919;-78
2023/02/01 11:43:06;;;;;;;;;;;;;;;15.89;32.53;98769.88;4937444;29;19919;-76
2023/02/01 11:45:34;;;;;;;;;;;;;;;15.94;32.33;98767.66;4937172;29;20325;-76
2023/02/01 11:48:00;;;;;;;;;;;;;;;15.93;31.93;98771.25;4937891;28;20013;-76
2023/02/01 11:50:28;;;;;;;;;;;;;;;15.93;31.54;98758.09;4941127;29;19969;-77
2023/02/01 11:52:57;;;;;;;;;;;;;;;15.97;31.75;98762.09;4940677;29;19918;-76
2023/02/01 11:55:25;;;;;;;;;;;;;;;15.89;31.56;98759.34;4958417;29;19919;-77
2023/02/01 11:58:02;;;;;;;;;;;;;;;15.82;31.29;98755.69;4957843;29;19978;-77
2023/02/01 12:00:30;;;;;;;;;;;;;;;15.83;31.50;98749.44;4940423;29;19922;-77
2023/02/01 12:02:55;;;;;;;;;;;;;;;15.68;31.92;98755.19;4957610;29;19922;-77
2023/02/01 12:05:39;;;;;;;;;;;;;;;15.64;32.16;98753.84;4957897;29;19918;-79
2023/02/01 12:08:10;;;;;;;;;;;;;;;15.58;32.41;98753.63;4958055;29;19918;-77
2023/02/01 12:10:36;;;;;;;;;;;;;;;15.44;31.92;98745.25;4957837;29;19918;-79
2023/02/01 12:13:13;;;;;;;;;;;;;;;15.25;32.33;98748.00;4940457;29;19969;-77
2023/02/01 12:15:57;;;;;;;;;;;;;;;15.16;32.39;98744.44;4957751;29;19919;-79
2023/02/01 12:18:44;;;;;;;;;;;;;;;15.05;32.46;98744.63;4957893;29;19918;-78
2023/02/01 12:21:13;;;;;;;;;;;;;;;14.91;32.73;98732.78;4940300;29;19973;-77
2023/02/01 12:23:41;;;;;;;;;;;;;;;14.79;33.06;98732.16;4939986;29;19922;-76
2023/02/01 12:26:22;;;;;;;;;;;;;;;14.63;33.34;98736.19;4939994;29;20389;-77
2023/02/01 12:29:02;;;;;;;;;;;;;;;14.46;33.62;98723.78;4957641;29;19919;-77
2023/02/01 12:31:34;;;;;;;;;;;;;;;14.29;34.05;98723.56;4956998;29;19930;-77
2023/02/01 12:33:59;;;;;;;;;;;;;;;14.12;34.24;98724.25;4939734;29;20013;-77
2023/02/01 12:36:45;;;;;;;;;;;;;;;14.03;34.66;98725.09;4939938;29;20014;-78
2023/02/01 12:39:29;;;;;;;;;;;;;;;13.90;35.02;98722.75;4957284;29;20009;-78
2023/02/01 12:42:07;;;;;;;;;;;;;;;13.75;35.40;98724.94;4956932;29;19918;-77
2023/02/01 12:44:46;;;;;;;;;;;;;;;13.61;35.57;98717.50;4939972;29;19941;-77
2023/02/01 12:47:11;;;;;;;;;;;;;;;13.50;35.62;98721.88;4939730;29;19926;-78
2023/02/01 12:49:52;;;;;;;;;;;;;;;13.37;35.86;98719.53;4956778;29;19922;-78
2023/02/01 12:52:43;;;;;;;;;;;;;;;13.26;36.24;98709.13;4939731;29;19925;-78
2023/02/01 12:55:35;;;;;;;;;;;;;;;13.12;35.84;98707.72;4954629;29;19925;-79
2023/02/01 12:58:11;;;;;;;;;;;;;;;12.99;36.05;98713.19;4954721;29;19962;-76
2023/02/01 13:00:38;;;;;;;;;;;;;;;12.88;36.29;98702.00;4938710;29;20009;-77
2023/02/01 13:03:05;;;;;;;;;;;;;;;12.78;36.50;98705.41;4939044;29;20417;-78
2023/02/01 13:05:34;;;;;;;;;;;;;;;12.70;36.64;98704.38;4939451;29;19918;-77
2023/02/01 13:08:02;;;;;;;;;;;;;;;12.60;37.08;98706.97;4939374;29;20408;-79
2023/02/01 13:10:33;;;;;;;;;;;;;;;12.53;37.16;98704.03;4955426;28;19969;-77
2023/02/01 13:13:07;;;;;;;;;;;;;;;12.44;37.30;98702.19;4939603;29;19957;-79
2023/02/01 13:15:36;;;;;;;;;;;;;;;12.36;37.29;98700.22;4956272;29;19925;-82
2023/02/01 13:18:02;;;;;;;;;;;;;;;12.28;37.02;98698.25;4939278;29;19949;-81